createdAt,value
2023-04-17T00:00:20.534Z,101083.69
2023-04-17T00:01:23.013Z,101075.56
2023-04-17T00:02:25.691Z,101076.75
2023-04-17T00:03:28.549Z,101080.34
2023-04-17T00:04:30.932Z,101077.31
2023-04-17T00:05:33.955Z,101085.44
2023-04-17T00:06:35.439Z,101082.94
2023-04-17T00:07:39.210Z,101084.31
2023-04-17T00:08:40.802Z,101082.72
2023-04-17T00:09:44.537Z,101083.88
2023-04-17T00:10:53.799Z,101082.13
2023-04-17T00:12:02.903Z,101082.69
2023-04-17T00:13:04.435Z,101082.44
2023-04-17T00:14:07.014Z,101082.44
2023-04-17T00:15:09.090Z,101084.63
2023-04-17T00:16:12.743Z,101076.91
2023-04-17T00:17:14.449Z,101085.94
2023-04-17T00:18:16.869Z,101081.03
2023-04-17T00:19:18.369Z,101089.66
2023-04-17T00:20:21.100Z,101086.38
2023-04-17T00:21:22.716Z,101085.22
2023-04-17T00:22:25.464Z,101082.03
2023-04-17T00:23:26.956Z,101080.66
2023-04-17T00:24:29.373Z,101085.50
2023-04-17T00:25:32.213Z,101080.06
2023-04-17T00:26:34.965Z,101081.00
2023-04-17T00:27:37.284Z,101079.59
2023-04-17T00:28:39.779Z,101071.72
2023-04-17T00:29:44.400Z,101077.59
2023-04-17T00:30:52.910Z,101082.88
2023-04-17T00:31:54.696Z,101075.19
2023-04-17T00:32:57.263Z,101078.81
2023-04-17T00:33:58.901Z,101079.38
2023-04-17T00:35:02.062Z,101073.94
2023-04-17T00:36:13.779Z,101079.97
2023-04-17T00:37:16.269Z,101079.38
2023-04-17T00:38:20.654Z,101073.91
2023-04-17T00:39:23.181Z,101079.28
2023-04-17T00:40:24.785Z,101079.66
2023-04-17T00:41:28.573Z,101076.44
2023-04-17T00:42:30.104Z,101075.69
2023-04-17T00:43:32.555Z,101066.94
2023-04-17T00:44:34.122Z,101071.53
2023-04-17T00:45:36.648Z,101076.19
2023-04-17T00:46:38.170Z,101075.31
2023-04-17T00:47:40.881Z,101071.56
2023-04-17T00:48:44.102Z,101069.44
2023-04-17T00:49:46.581Z,101072.19
2023-04-17T00:50:48.058Z,101071.06
2023-04-17T00:51:51.090Z,101077.38
2023-04-17T00:52:52.572Z,101071.06
2023-04-17T00:53:56.008Z,101074.63
2023-04-17T00:54:58.944Z,101077.84
2023-04-17T00:56:03.336Z,101072.97
2023-04-17T00:57:06.467Z,101077.91
2023-04-17T00:58:10.087Z,101074.88
2023-04-17T00:59:12.641Z,101072.34
2023-04-17T01:00:17.027Z,101066.63
2023-04-17T01:01:18.593Z,101077.25
2023-04-17T01:02:21.333Z,101078.25
2023-04-17T01:03:23.326Z,101071.47
2023-04-17T01:04:26.638Z,101073.44
2023-04-17T01:05:29.072Z,101068.44
2023-04-17T01:06:31.684Z,101078.53
2023-04-17T01:07:33.349Z,101065.09
2023-04-17T01:08:42.412Z,101070.59
2023-04-17T01:09:43.957Z,101075.63
2023-04-17T01:10:46.709Z,101072.03
2023-04-17T01:11:48.192Z,101072.34
2023-04-17T01:13:02.340Z,101074.28
2023-04-17T01:14:03.808Z,101070.97
2023-04-17T01:15:07.089Z,101075.59
2023-04-17T01:16:08.604Z,101068.88
2023-04-17T01:17:14.244Z,101077.06
2023-04-17T01:18:16.447Z,101074.81
2023-04-17T01:19:19.581Z,101074.28
2023-04-17T01:20:21.428Z,101070.88
2023-04-17T01:21:23.923Z,101076.97
2023-04-17T01:22:25.729Z,101070.22
2023-04-17T01:23:29.740Z,101077.50
2023-04-17T01:24:32.672Z,101078.03
2023-04-17T01:25:36.010Z,101074.78
2023-04-17T01:26:38.584Z,101076.91
2023-04-17T01:27:41.994Z,101073.50
2023-04-17T01:28:43.887Z,101066.13
2023-04-17T01:29:47.872Z,101077.53
2023-04-17T01:30:49.478Z,101075.84
2023-04-17T01:31:51.942Z,101074.41
2023-04-17T01:32:54.007Z,101074.78
2023-04-17T01:33:56.494Z,101071.53
2023-04-17T01:34:58.229Z,101074.31
2023-04-17T01:36:00.680Z,101075.38
2023-04-17T01:37:02.296Z,101075.13
2023-04-17T01:38:04.771Z,101072.00
2023-04-17T01:39:06.220Z,101080.16
2023-04-17T01:40:11.247Z,101075.53
2023-04-17T01:41:12.958Z,101078.50
2023-04-17T01:42:15.402Z,101077.69
2023-04-17T01:43:16.879Z,101081.56
2023-04-17T01:44:19.703Z,101071.44
2023-04-17T01:45:21.405Z,101074.31
2023-04-17T01:46:23.888Z,101078.41
2023-04-17T01:47:25.451Z,101075.41
2023-04-17T01:48:28.553Z,101084.44
2023-04-17T01:49:30.589Z,101078.19
2023-04-17T01:50:33.018Z,101074.28
2023-04-17T01:51:34.550Z,101082.34
2023-04-17T01:52:37.192Z,101073.97
2023-04-17T01:53:39.740Z,101075.91
2023-04-17T01:54:42.184Z,101084.28
2023-04-17T01:55:45.011Z,101080.28
2023-04-17T01:56:47.751Z,101086.19
2023-04-17T01:57:50.200Z,101077.47
2023-04-17T01:58:52.701Z,101076.97
2023-04-17T01:59:54.177Z,101087.00
2023-04-17T02:00:56.613Z,101081.28
2023-04-17T02:01:58.150Z,101083.84
2023-04-17T02:03:00.797Z,101078.50
2023-04-17T02:04:02.464Z,101075.41
2023-04-17T02:05:05.364Z,101079.59
2023-04-17T02:06:07.581Z,101076.78
2023-04-17T02:07:10.136Z,101077.44
2023-04-17T02:08:11.697Z,101090.31
2023-04-17T02:09:14.112Z,101082.41
2023-04-17T02:10:15.729Z,101081.78
2023-04-17T02:11:19.753Z,101090.97
2023-04-17T02:12:21.278Z,101086.69
2023-04-17T02:13:23.697Z,101083.78
2023-04-17T02:14:25.438Z,101086.59
2023-04-17T02:15:28.159Z,101084.56
2023-04-17T02:16:31.748Z,101082.91
2023-04-17T02:17:34.349Z,101087.81
2023-04-17T02:18:35.937Z,101079.38
2023-04-17T02:19:38.379Z,101088.16
2023-04-17T02:20:40.077Z,101087.09
2023-04-17T02:21:42.523Z,101090.25
2023-04-17T02:22:44.300Z,101082.44
2023-04-17T02:23:46.755Z,101092.66
2023-04-17T02:24:48.274Z,101085.63
2023-04-17T02:25:50.820Z,101091.25
2023-04-17T02:26:53.623Z,101095.13
2023-04-17T02:27:56.494Z,101084.69
2023-04-17T02:28:57.977Z,101085.94
2023-04-17T02:30:00.756Z,101079.91
2023-04-17T02:31:02.305Z,101091.59
2023-04-17T02:32:04.787Z,101086.97
2023-04-17T02:33:06.294Z,101084.59
2023-04-17T02:34:08.754Z,101092.28
2023-04-17T02:35:10.310Z,101089.75
2023-04-17T02:36:12.711Z,101086.34
2023-04-17T02:37:14.274Z,101082.78
2023-04-17T02:38:16.940Z,101080.59
2023-04-17T02:39:18.479Z,101088.09
2023-04-17T02:40:21.145Z,101084.06
2023-04-17T02:41:22.695Z,101081.94
2023-04-17T02:42:26.505Z,101090.31
2023-04-17T02:43:27.978Z,101086.84
2023-04-17T02:44:30.510Z,101086.63
2023-04-17T02:45:32.042Z,101088.53
2023-04-17T02:46:34.601Z,101084.47
2023-04-17T02:47:36.425Z,101092.41
2023-04-17T02:48:38.899Z,101087.44
2023-04-17T02:49:41.786Z,101092.00
2023-04-17T02:50:44.273Z,101080.06
2023-04-17T02:51:46.286Z,101093.53
2023-04-17T02:52:48.973Z,101085.94
2023-04-17T02:53:50.611Z,101088.66
2023-04-17T02:54:53.022Z,101086.25
2023-04-17T02:55:54.521Z,101091.59
2023-04-17T02:56:58.518Z,101091.13
2023-04-17T02:58:01.596Z,101086.09
2023-04-17T02:59:04.139Z,101087.28
2023-04-17T03:00:08.071Z,101091.50
2023-04-17T03:01:10.539Z,101088.34
2023-04-17T03:02:14.612Z,101093.06
2023-04-17T03:03:17.374Z,101088.53
2023-04-17T03:04:19.378Z,101092.09
2023-04-17T03:05:23.516Z,101090.75
2023-04-17T03:06:25.030Z,101085.91
2023-04-17T03:07:27.968Z,101090.94
2023-04-17T03:08:31.906Z,101089.13
2023-04-17T03:09:35.666Z,101091.81
2023-04-17T03:10:38.118Z,101092.91
2023-04-17T03:11:39.617Z,101095.31
2023-04-17T03:12:42.381Z,101089.84
2023-04-17T03:13:45.600Z,101091.28
2023-04-17T03:14:48.082Z,101091.47
2023-04-17T03:15:49.571Z,101095.44
2023-04-17T03:16:52.090Z,101099.72
2023-04-17T03:17:53.752Z,101092.28
2023-04-17T03:18:56.257Z,101096.63
2023-04-17T03:19:57.728Z,101091.28
2023-04-17T03:21:00.192Z,101096.97
2023-04-17T03:22:02.480Z,101093.63
2023-04-17T03:23:05.136Z,101097.22
2023-04-17T03:24:06.897Z,101104.09
2023-04-17T03:25:10.313Z,101100.50
2023-04-17T03:26:13.091Z,101100.25
2023-04-17T03:27:14.630Z,101106.47
2023-04-17T03:28:17.074Z,101102.25
2023-04-17T03:29:19.971Z,101106.31
2023-04-17T03:30:22.372Z,101103.94
2023-04-17T03:31:25.678Z,101104.13
2023-04-17T03:32:28.208Z,101110.75
2023-04-17T03:33:29.712Z,101115.03
2023-04-17T03:34:32.427Z,101109.09
2023-04-17T03:35:33.912Z,101109.19
2023-04-17T03:36:36.558Z,101115.91
2023-04-17T03:37:38.028Z,101109.59
2023-04-17T03:38:40.462Z,101111.94
2023-04-17T03:39:42.124Z,101112.59
2023-04-17T03:40:44.986Z,101114.53
2023-04-17T03:41:46.486Z,101116.28
2023-04-17T03:42:49.066Z,101109.19
2023-04-17T03:43:50.542Z,101117.28
2023-04-17T03:44:55.362Z,101113.28
2023-04-17T03:45:56.881Z,101114.81
2023-04-17T03:46:59.390Z,101113.28
2023-04-17T03:48:01.457Z,101118.63
2023-04-17T03:49:03.906Z,101117.84
2023-04-17T03:50:06.640Z,101113.25
2023-04-17T03:51:09.154Z,101114.13
2023-04-17T03:52:10.958Z,101117.66
2023-04-17T03:53:13.367Z,101117.59
2023-04-17T03:54:17.060Z,101118.72
2023-04-17T03:55:19.584Z,101108.47
2023-04-17T03:56:21.842Z,101114.72
2023-04-17T03:57:24.752Z,101116.53
2023-04-17T03:58:26.292Z,101118.13
2023-04-17T03:59:28.832Z,101119.50
2023-04-17T04:00:31.795Z,101118.34
2023-04-17T04:01:34.510Z,101111.94
2023-04-17T04:02:36.213Z,101117.88
2023-04-17T04:03:39.020Z,101113.81
2023-04-17T04:04:41.139Z,101116.69
2023-04-17T04:05:43.797Z,101116.19
2023-04-17T04:06:47.192Z,101116.16
2023-04-17T04:07:49.680Z,101122.84
2023-04-17T04:08:51.811Z,101117.81
2023-04-17T04:09:54.325Z,101123.59
2023-04-17T04:10:56.192Z,101126.22
2023-04-17T04:11:58.704Z,101124.34
2023-04-17T04:13:00.244Z,101123.97
2023-04-17T04:14:02.697Z,101127.97
2023-04-17T04:15:05.349Z,101124.25
2023-04-17T04:16:10.421Z,101128.94
2023-04-17T04:17:11.958Z,101131.94
2023-04-17T04:18:14.390Z,101133.47
2023-04-17T04:19:16.205Z,101132.09
2023-04-17T04:20:18.837Z,101132.53
2023-04-17T04:21:20.844Z,101134.81
2023-04-17T04:22:23.537Z,101135.81
2023-04-17T04:23:25.057Z,101136.94
2023-04-17T04:24:27.570Z,101137.34
2023-04-17T04:25:29.246Z,101142.81
2023-04-17T04:26:33.295Z,101129.22
2023-04-17T04:27:34.832Z,101140.75
2023-04-17T04:28:38.098Z,101132.50
2023-04-17T04:29:40.066Z,101134.63
2023-04-17T04:30:50.553Z,101142.97
2023-04-17T04:31:54.141Z,101140.53
2023-04-17T04:32:57.077Z,101141.25
2023-04-17T04:33:59.286Z,101139.81
2023-04-17T04:35:02.030Z,101142.00
2023-04-17T04:36:03.797Z,101134.84
2023-04-17T04:37:06.311Z,101146.53
2023-04-17T04:38:08.603Z,101146.38
2023-04-17T04:39:20.281Z,101142.34
2023-04-17T04:40:21.791Z,101153.56
2023-04-17T04:41:25.185Z,101149.31
2023-04-17T04:42:27.148Z,101144.06
2023-04-17T04:43:30.305Z,101147.84
2023-04-17T04:44:32.111Z,101147.69
2023-04-17T04:45:34.576Z,101150.31
2023-04-17T04:46:36.190Z,101146.19
2023-04-17T04:47:40.065Z,101152.06
2023-04-17T04:48:42.844Z,101152.88
2023-04-17T04:49:45.554Z,101156.59
2023-04-17T04:50:47.236Z,101153.59
2023-04-17T04:51:49.751Z,101154.09
2023-04-17T04:52:51.260Z,101151.81
2023-04-17T04:53:53.719Z,101159.97
2023-04-17T04:54:55.269Z,101150.22
2023-04-17T04:55:57.747Z,101157.06
2023-04-17T04:56:59.208Z,101150.31
2023-04-17T04:58:01.737Z,101150.81
2023-04-17T04:59:04.241Z,101162.47
2023-04-17T05:00:08.518Z,101152.06
2023-04-17T05:01:12.109Z,101156.19
2023-04-17T05:02:13.749Z,101159.53
2023-04-17T05:03:17.868Z,101156.69
2023-04-17T05:04:19.762Z,101156.91
2023-04-17T05:05:22.612Z,101156.59
2023-04-17T05:06:24.528Z,101158.56
2023-04-17T05:07:27.203Z,101158.09
2023-04-17T05:08:29.724Z,101154.78
2023-04-17T05:09:31.892Z,101161.28
2023-04-17T05:10:34.378Z,101163.38
2023-04-17T05:11:35.948Z,101162.97
2023-04-17T05:12:38.421Z,101168.28
2023-04-17T05:13:39.896Z,101165.16
2023-04-17T05:14:42.811Z,101166.88
2023-04-17T05:15:44.314Z,101168.63
2023-04-17T05:16:46.916Z,101165.09
2023-04-17T05:17:48.590Z,101174.69
2023-04-17T05:18:52.398Z,101169.84
2023-04-17T05:19:53.900Z,101178.50
2023-04-17T05:20:56.529Z,101175.63
2023-04-17T05:21:58.017Z,101180.72
2023-04-17T05:23:00.435Z,101180.63
2023-04-17T05:24:01.931Z,101189.44
2023-04-17T05:25:04.976Z,101183.94
2023-04-17T05:26:07.494Z,101191.28
2023-04-17T05:27:09.027Z,101188.00
2023-04-17T05:28:11.516Z,101182.16
2023-04-17T05:29:13.156Z,101188.75
2023-04-17T05:30:16.516Z,101192.47
2023-04-17T05:31:18.062Z,101184.81
2023-04-17T05:32:20.587Z,101189.25
2023-04-17T05:33:22.093Z,101192.47
2023-04-17T05:34:26.115Z,101189.91
2023-04-17T05:35:28.039Z,101189.31
2023-04-17T05:36:31.476Z,101192.38
2023-04-17T05:37:33.007Z,101186.69
2023-04-17T05:38:35.451Z,101196.53
2023-04-17T05:39:38.065Z,101201.09
2023-04-17T05:40:40.537Z,101197.03
2023-04-17T05:41:41.993Z,101189.06
2023-04-17T05:42:44.483Z,101193.91
2023-04-17T05:43:46.043Z,101193.41
2023-04-17T05:44:48.573Z,101190.38
2023-04-17T05:45:50.708Z,101190.88
2023-04-17T05:46:53.462Z,101201.22
2023-04-17T05:47:55.085Z,101199.91
2023-04-17T05:48:57.642Z,101198.94
2023-04-17T05:50:00.610Z,101210.16
2023-04-17T05:51:03.140Z,101202.16
2023-04-17T05:52:04.986Z,101210.03
2023-04-17T05:53:07.525Z,101208.41
2023-04-17T05:54:09.021Z,101199.56
2023-04-17T05:55:11.475Z,101209.78
2023-04-17T05:56:19.949Z,101211.47
2023-04-17T05:57:41.505Z,101205.84
2023-04-17T05:59:03.950Z,101208.81
2023-04-17T06:00:10.578Z,101218.69
2023-04-17T06:01:16.945Z,101217.72
2023-04-17T06:02:18.604Z,101211.28
2023-04-17T06:03:21.571Z,101213.66
2023-04-17T06:04:23.700Z,101220.41
2023-04-17T06:05:28.153Z,101210.09
2023-04-17T06:06:29.848Z,101209.75
2023-04-17T06:07:32.790Z,101217.97
2023-04-17T06:08:52.447Z,101218.56
2023-04-17T06:09:58.416Z,101214.81
2023-04-17T06:11:00.960Z,101213.13
2023-04-17T06:12:02.518Z,101212.28
2023-04-17T06:13:04.981Z,101211.63
2023-04-17T06:14:06.686Z,101212.44
2023-04-17T06:15:18.275Z,101217.38
2023-04-17T06:16:20.737Z,101210.09
2023-04-17T06:17:22.292Z,101225.81
2023-04-17T06:18:24.801Z,101221.81
2023-04-17T06:19:26.392Z,101216.22
2023-04-17T06:20:30.186Z,101220.47
2023-04-17T06:21:32.236Z,101225.63
2023-04-17T06:22:34.717Z,101223.22
2023-04-17T06:23:37.238Z,101224.53
2023-04-17T06:24:38.783Z,101226.38
2023-04-17T06:25:41.556Z,101226.34
2023-04-17T06:26:44.010Z,101229.91
2023-04-17T06:27:45.584Z,101234.97
2023-04-17T06:28:48.028Z,101232.50
2023-04-17T06:29:49.525Z,101234.47
2023-04-17T06:30:52.108Z,101238.00
2023-04-17T06:31:53.700Z,101231.09
2023-04-17T06:32:56.397Z,101229.72
2023-04-17T06:33:58.068Z,101230.50
2023-04-17T06:35:00.580Z,101232.03
2023-04-17T06:36:04.599Z,101235.69
2023-04-17T06:37:06.307Z,101235.03
2023-04-17T06:38:09.215Z,101235.91
2023-04-17T06:39:11.114Z,101233.41
2023-04-17T06:40:14.237Z,101235.97
2023-04-17T06:41:16.222Z,101236.13
2023-04-17T06:42:18.932Z,101236.72
2023-04-17T06:43:20.403Z,101239.81
2023-04-17T06:44:22.826Z,101238.31
2023-04-17T06:45:24.447Z,101242.22
2023-04-17T06:46:26.951Z,101232.91
2023-04-17T06:47:28.778Z,101233.63
2023-04-17T06:48:31.322Z,101231.63
2023-04-17T06:49:53.778Z,101246.22
2023-04-17T06:51:20.695Z,101236.06
2023-04-17T06:52:43.406Z,101242.81
2023-04-17T06:54:06.012Z,101247.28
2023-04-17T06:55:08.390Z,101248.94
2023-04-17T06:56:10.833Z,101255.56
2023-04-17T06:57:12.477Z,101251.31
2023-04-17T06:58:15.426Z,101251.72
2023-04-17T06:59:17.311Z,101244.03
2023-04-17T07:00:21.166Z,101244.50
2023-04-17T07:01:22.733Z,101252.72
2023-04-17T07:02:25.508Z,101249.84
2023-04-17T07:03:27.644Z,101255.22
2023-04-17T07:04:31.556Z,101254.44
2023-04-17T07:05:33.247Z,101258.22
2023-04-17T07:06:51.491Z,101254.59
2023-04-17T07:08:03.705Z,101258.59
2023-04-17T07:09:05.848Z,101264.97
2023-04-17T07:10:08.879Z,101256.34
2023-04-17T07:11:11.338Z,101268.59
2023-04-17T07:12:12.910Z,101260.84
2023-04-17T07:13:15.383Z,101255.72
2023-04-17T07:14:16.943Z,101256.53
2023-04-17T07:15:19.751Z,101254.34
2023-04-17T07:16:22.838Z,101253.78
2023-04-17T07:17:27.035Z,101258.66
2023-04-17T07:18:29.495Z,101260.03
2023-04-17T07:19:31.900Z,101262.53
2023-04-17T07:20:33.425Z,101262.19
2023-04-17T07:21:35.874Z,101260.22
2023-04-17T07:22:39.969Z,101264.81
2023-04-17T07:23:42.272Z,101265.44
2023-04-17T07:24:45.071Z,101259.63
2023-04-17T07:25:46.666Z,101260.69
2023-04-17T07:26:52.915Z,101261.13
2023-04-17T07:27:56.050Z,101262.53
2023-04-17T07:28:58.800Z,101269.91
2023-04-17T07:30:00.568Z,101268.09
2023-04-17T07:31:08.594Z,101274.56
2023-04-17T07:32:10.858Z,101274.44
2023-04-17T07:33:13.444Z,101273.75
2023-04-17T07:34:16.199Z,101273.81
2023-04-17T07:35:17.951Z,101280.28
2023-04-17T07:36:20.577Z,101284.72
2023-04-17T07:37:22.998Z,101276.38
2023-04-17T07:38:27.962Z,101283.16
2023-04-17T07:39:31.958Z,101285.38
2023-04-17T07:40:36.973Z,101275.03
2023-04-17T07:41:39.491Z,101282.72
2023-04-17T07:42:40.974Z,101283.50
2023-04-17T07:43:43.795Z,101284.75
2023-04-17T07:44:46.736Z,101293.78
2023-04-17T07:45:49.905Z,101280.19
2023-04-17T07:46:52.462Z,101289.63
2023-04-17T07:47:54.238Z,101289.53
2023-04-17T07:48:56.768Z,101288.41
2023-04-17T07:49:58.297Z,101290.91
2023-04-17T07:51:00.982Z,101289.34
2023-04-17T07:52:03.545Z,101289.91
2023-04-17T07:53:05.102Z,101285.16
2023-04-17T07:54:09.175Z,101286.63
2023-04-17T07:55:10.828Z,101286.81
2023-04-17T07:56:14.124Z,101296.72
2023-04-17T07:57:17.920Z,101287.41
2023-04-17T07:58:20.544Z,101287.59
2023-04-17T07:59:23.053Z,101296.44
2023-04-17T08:00:24.596Z,101299.78
2023-04-17T08:01:27.736Z,101298.25
2023-04-17T08:02:29.442Z,101295.53
2023-04-17T08:03:32.616Z,101297.66
2023-04-17T08:04:34.652Z,101301.09
2023-04-17T08:05:37.648Z,101302.72
2023-04-17T08:06:40.434Z,101303.19
2023-04-17T08:07:43.488Z,101304.72
2023-04-17T08:08:47.595Z,101299.66
2023-04-17T08:09:52.054Z,101307.50
2023-04-17T08:10:54.586Z,101305.09
2023-04-17T08:11:57.854Z,101309.13
2023-04-17T08:13:01.344Z,101310.72
2023-04-17T08:14:04.345Z,101309.81
2023-04-17T08:15:08.053Z,101309.72
2023-04-17T08:16:10.896Z,101310.91
2023-04-17T08:17:12.534Z,101307.81
2023-04-17T08:18:15.085Z,101312.78
2023-04-17T08:19:17.577Z,101317.69
2023-04-17T08:20:19.523Z,101309.75
2023-04-17T08:21:22.335Z,101323.25
2023-04-17T08:22:24.440Z,101312.66
2023-04-17T08:23:27.100Z,101317.88
2023-04-17T08:24:28.618Z,101314.63
2023-04-17T08:25:32.993Z,101316.13
2023-04-17T08:26:35.587Z,101321.38
2023-04-17T08:27:37.463Z,101310.28
2023-04-17T08:28:39.946Z,101324.94
2023-04-17T08:29:42.161Z,101319.66
2023-04-17T08:30:44.631Z,101327.53
2023-04-17T08:31:47.118Z,101322.81
2023-04-17T08:32:50.687Z,101324.22
2023-04-17T08:34:06.220Z,101319.44
2023-04-17T08:35:17.276Z,101323.72
2023-04-17T08:36:18.771Z,101321.25
2023-04-17T08:37:21.390Z,101320.25
2023-04-17T08:38:23.812Z,101325.78
2023-04-17T08:39:27.100Z,101326.59
2023-04-17T08:40:29.586Z,101325.50
2023-04-17T08:41:39.393Z,101328.28
2023-04-17T08:42:43.593Z,101328.28
2023-04-17T08:43:49.171Z,101330.75
2023-04-17T08:44:51.642Z,101328.75
2023-04-17T08:45:55.424Z,101329.38
2023-04-17T08:46:58.183Z,101327.59
2023-04-17T08:48:00.938Z,101326.19
2023-04-17T08:49:03.385Z,101330.88
2023-04-17T08:50:09.108Z,101328.44
2023-04-17T08:51:11.540Z,101329.31
2023-04-17T08:52:13.074Z,101328.09
2023-04-17T08:53:16.763Z,101320.00
2023-04-17T08:54:21.894Z,101335.66
2023-04-17T08:55:25.831Z,101326.69
2023-04-17T08:56:28.603Z,101340.78
2023-04-17T08:57:32.577Z,101339.41
2023-04-17T08:58:35.746Z,101339.88
2023-04-17T08:59:37.392Z,101338.06
2023-04-17T09:00:41.898Z,101337.56
2023-04-17T09:02:02.944Z,101342.53
2023-04-17T09:03:08.845Z,101330.97
2023-04-17T09:04:10.836Z,101342.00
2023-04-17T09:05:21.048Z,101330.22
2023-04-17T09:06:22.798Z,101338.47
2023-04-17T09:07:30.546Z,101340.13
2023-04-17T09:08:33.038Z,101343.31
2023-04-17T09:09:50.616Z,101336.19
2023-04-17T09:10:54.231Z,101332.06
2023-04-17T09:12:11.241Z,101341.69
2023-04-17T09:13:16.506Z,101346.31
2023-04-17T09:14:29.865Z,101343.34
2023-04-17T09:15:32.387Z,101342.88
2023-04-17T09:16:35.142Z,101334.94
2023-04-17T09:17:37.887Z,101345.31
2023-04-17T09:18:42.894Z,101345.72
2023-04-17T09:20:07.265Z,101340.19
2023-04-17T09:21:10.714Z,101340.75
2023-04-17T09:22:19.468Z,101348.63
2023-04-17T09:23:22.684Z,101342.56
2023-04-17T09:24:33.863Z,101340.56
2023-04-17T09:26:06.391Z,101344.13
2023-04-17T09:27:21.357Z,101341.28
2023-04-17T09:29:03.590Z,101344.06
2023-04-17T09:30:06.923Z,101345.88
2023-04-17T09:31:31.327Z,101342.28
2023-04-17T09:33:04.716Z,101344.72
2023-04-17T09:34:28.409Z,101349.00
2023-04-17T09:35:31.148Z,101339.13
2023-04-17T09:36:35.100Z,101346.16
2023-04-17T09:37:59.313Z,101343.16
2023-04-17T09:39:24.363Z,101349.28
2023-04-17T09:40:45.903Z,101344.81
2023-04-17T09:42:10.353Z,101343.50
2023-04-17T09:43:12.379Z,101347.22
2023-04-17T09:44:26.704Z,101340.75
2023-04-17T09:45:35.503Z,101347.22
2023-04-17T09:46:41.224Z,101347.00
2023-04-17T09:47:46.123Z,101343.03
2023-04-17T09:48:50.403Z,101338.47
2023-04-17T09:49:54.006Z,101347.78
2023-04-17T09:50:56.311Z,101343.50
2023-04-17T09:51:59.418Z,101346.06
2023-04-17T09:53:04.079Z,101350.31
2023-04-17T09:54:07.206Z,101343.47
2023-04-17T09:55:10.781Z,101341.53
2023-04-17T09:56:13.600Z,101345.63
2023-04-17T09:57:16.578Z,101343.22
2023-04-17T09:58:19.069Z,101344.75
2023-04-17T09:59:23.685Z,101331.78
2023-04-17T10:00:28.252Z,101355.44
2023-04-17T10:01:30.754Z,101343.59
2023-04-17T10:02:34.396Z,101348.75
2023-04-17T10:03:37.785Z,101350.97
2023-04-17T10:04:41.176Z,101343.75
2023-04-17T10:05:43.891Z,101342.25
2023-04-17T10:06:45.901Z,101346.34
2023-04-17T10:07:49.084Z,101346.00
2023-04-17T10:08:51.594Z,101346.00
2023-04-17T10:09:54.144Z,101344.44
2023-04-17T10:11:06.680Z,101352.78
2023-04-17T10:12:12.973Z,101343.59
2023-04-17T10:13:16.604Z,101347.94
2023-04-17T10:14:22.505Z,101346.25
2023-04-17T10:15:27.324Z,101348.44
2023-04-17T10:16:36.449Z,101347.22
2023-04-17T10:17:39.326Z,101339.00
2023-04-17T10:18:40.973Z,101339.66
2023-04-17T10:19:43.493Z,101340.44
2023-04-17T10:20:48.495Z,101332.44
2023-04-17T10:22:24.892Z,101343.81
2023-04-17T10:23:32.482Z,101339.34
2023-04-17T10:24:34.119Z,101337.94
2023-04-17T10:25:36.617Z,101336.13
2023-04-17T10:26:38.191Z,101332.88
2023-04-17T10:27:45.391Z,101330.38
2023-04-17T10:28:48.440Z,101331.94
2023-04-17T10:29:54.310Z,101332.44
2023-04-17T10:31:01.191Z,101334.19
2023-04-17T10:32:16.706Z,101334.84
2023-04-17T10:33:27.309Z,101333.44
2023-04-17T10:34:38.369Z,101336.94
2023-04-17T10:35:41.008Z,101331.00
2023-04-17T10:36:49.456Z,101333.16
2023-04-17T10:38:04.577Z,101336.44
2023-04-17T10:39:15.515Z,101329.75
2023-04-17T10:40:21.101Z,101326.25
2023-04-17T10:41:24.557Z,101338.91
2023-04-17T10:42:26.639Z,101344.06
2023-04-17T10:43:29.178Z,101331.38
2023-04-17T10:44:33.182Z,101332.53
2023-04-17T10:46:02.873Z,101327.09
2023-04-17T10:47:06.914Z,101326.78
2023-04-17T10:48:21.085Z,101335.91
2023-04-17T10:49:23.646Z,101339.75
2023-04-17T10:50:28.449Z,101332.50
2023-04-17T10:51:41.515Z,101330.03
2023-04-17T10:52:45.181Z,101327.88
2023-04-17T10:53:47.437Z,101333.59
2023-04-17T10:55:07.899Z,101325.47
2023-04-17T10:56:11.838Z,101329.31
2023-04-17T10:57:13.328Z,101326.72
2023-04-17T10:58:16.681Z,101336.97
2023-04-17T10:59:20.818Z,101321.19
2023-04-17T11:00:30.218Z,101317.88
2023-04-17T11:01:41.392Z,101317.22
2023-04-17T11:02:45.500Z,101320.00
2023-04-17T11:03:48.386Z,101317.91
2023-04-17T11:05:07.507Z,101320.75
2023-04-17T11:06:10.580Z,101320.25
2023-04-17T11:07:12.660Z,101316.75
2023-04-17T11:08:16.222Z,101321.41
2023-04-17T11:09:20.655Z,101312.28
2023-04-17T11:10:23.777Z,101314.47
2023-04-17T11:11:40.359Z,101312.28
2023-04-17T11:12:47.557Z,101311.53
2023-04-17T11:13:54.106Z,101312.03
2023-04-17T11:15:05.353Z,101318.09
2023-04-17T11:16:10.596Z,101313.66
2023-04-17T11:17:14.913Z,101318.72
2023-04-17T11:18:19.051Z,101321.94
2023-04-17T11:19:24.044Z,101317.28
2023-04-17T11:20:28.663Z,101306.66
2023-04-17T11:21:31.358Z,101315.13
2023-04-17T11:22:33.922Z,101315.63
2023-04-17T11:23:37.126Z,101310.72
2023-04-17T11:24:39.743Z,101312.09
2023-04-17T11:25:43.015Z,101309.91
2023-04-17T11:26:46.598Z,101309.47
2023-04-17T11:27:52.430Z,101317.28
2023-04-17T11:29:15.010Z,101319.25
2023-04-17T11:30:24.322Z,101315.94
2023-04-17T11:31:27.188Z,101311.22
2023-04-17T11:32:36.424Z,101314.81
2023-04-17T11:33:39.257Z,101319.50
2023-04-17T11:34:42.551Z,101325.16
2023-04-17T11:35:45.265Z,101322.28
2023-04-17T11:36:49.970Z,101322.81
2023-04-17T11:38:13.843Z,101315.06
2023-04-17T11:39:19.856Z,101321.91
2023-04-17T11:40:22.649Z,101329.97
2023-04-17T11:41:25.548Z,101320.50
2023-04-17T11:42:27.463Z,101328.16
2023-04-17T11:43:31.369Z,101334.00
2023-04-17T11:44:33.015Z,101336.44
2023-04-17T11:45:37.034Z,101333.69
2023-04-17T11:46:39.932Z,101332.94
2023-04-17T11:47:42.979Z,101328.00
2023-04-17T11:48:50.449Z,101331.78
2023-04-17T11:49:52.138Z,101329.06
2023-04-17T11:50:59.929Z,101332.06
2023-04-17T11:52:04.055Z,101326.31
2023-04-17T11:53:07.707Z,101326.59
2023-04-17T11:54:10.702Z,101330.44
2023-04-17T11:55:12.339Z,101327.16
2023-04-17T11:56:16.331Z,101329.88
2023-04-17T11:57:18.351Z,101336.44
2023-04-17T11:58:21.358Z,101333.19
2023-04-17T11:59:31.522Z,101331.78
2023-04-17T12:00:34.993Z,101330.44
2023-04-17T12:01:52.930Z,101324.34
2023-04-17T12:02:57.793Z,101337.97
2023-04-17T12:04:00.837Z,101325.03
2023-04-17T12:05:17.799Z,101323.09
2023-04-17T12:06:20.621Z,101331.78
2023-04-17T12:07:24.175Z,101331.69
2023-04-17T12:08:26.804Z,101332.72
2023-04-17T12:09:31.757Z,101336.66
2023-04-17T12:10:38.851Z,101329.88
2023-04-17T12:11:41.356Z,101327.09